Greenfield, Indiana
Current Conditions -  °F | °C
As of 12:35 PM on Friday 24 Oct 2014 (Local Time) from KMQJ Reporting Station
Scattered Clouds Scattered Clouds  
Wind Chill: 61°   Ceiling: Unl
Heat Index: 61°   Visibility: 10mi
Dew Point: 34°   Wind: 8mph
Humidity: 36%   Direction: 230°SW
Pressure: 30.1"   Gusts: NA
Location:  39.78°N, 85.77°W
Report Text: KMQJ 241635Z AUTO 23007KT 190V260 10SM SCT040 16/01 A3010 RMK AO1
Loading
Personal Weather Stations






























Interactive Weather Map New forecast layout! Learn more

10-Day Weather Forecast

Advertisements
Track Severe Weather on mobile